AAR542 EDDF-RKSI
Flight info
| Callsign | AAR542 |
|---|---|
| Flight time | N/A |
| Altitude | 31000 |
| Route | CINDY8S/18 CINDY Z74 HAREM DCT ASLEP DCT TAKUT DCT DINKU L603 BESNI/N0481F370 L605 MIQ DCT ALUTU DCT BIBAG Q104 AKIMA DCT STEIN DCT TEGRI DCT LUGEB DCT UDROS UM859 KARDE UN644 ROLIN DCT TAGAR DCT BT/N0492F390 DCT BARAD M747 SUBUT T923 ERLEV L850 BAKUV N701 LARGI B701 KRS B738 NEBIT B476 TIMGA A480 OTBOR/K0896F390 N147 GENDI Z621 ARBOL M610 RULAD/K0898S1190 A343 NLT/K0900S1250 A343 POSOT B215 FKG W188 LIKMI W270 DKO W69 HUR B339 LADIX W34 VAPGU W100 ORAVA W201 UNSEK A326 DONVO G597 AGAVO/N0505F290 Y644 REBIT REBIT2H |
| Aircraft | A359/H-SDE2E3GHIJ3J4J5LM1ORWXY/LB1D1 |
Departure
| Time | 2026-05-04 18:50 |
|---|---|
| Airport | Frankfurt Main Airport (EDDF) |
Arrival
| Time | N/A |
|---|---|
| Airport | Incheon International Airport (RKSI) |
| Time | Latitude | Longitude | Altitude | Speed | Heading |
|---|---|---|---|---|---|
| 2026-05-04 18:11 | 50.03290 | 8.58068 | 369 ft | 0 kts | 250° |
| 2026-05-04 18:33 | 50.03291 | 8.58071 | 369 ft | 2 kts | 250° |
| 2026-05-04 18:33 | 50.03300 | 8.58110 | 366 ft | 5 kts | 250° |
| 2026-05-04 18:34 | 50.03308 | 8.58142 | 369 ft | 4 kts | 252° |
| 2026-05-04 18:34 | 50.03312 | 8.58177 | 369 ft | 4 kts | 282° |
| 2026-05-04 18:34 | 50.03304 | 8.58208 | 370 ft | 5 kts | 316° |
| 2026-05-04 18:34 | 50.03285 | 8.58228 | 368 ft | 4 kts | 341° |
| 2026-05-04 18:35 | 50.03261 | 8.58236 | 368 ft | 4 kts | 3° |
| 2026-05-04 18:35 | 50.03235 | 8.58233 | 368 ft | 2 kts | 2° |
| 2026-05-04 18:35 | 50.03233 | 8.58232 | 368 ft | 5 kts | 2° |
| 2026-05-04 18:37 | 50.03237 | 8.58233 | 368 ft | 3 kts | 1° |
| 2026-05-04 18:37 | 50.03290 | 8.58225 | 370 ft | 11 kts | 341° |
| 2026-05-04 18:37 | 50.03392 | 8.58170 | 368 ft | 20 kts | 339° |
| 2026-05-04 18:38 | 50.03487 | 8.58115 | 368 ft | 6 kts | 339° |
| 2026-05-04 18:38 | 50.03499 | 8.58108 | 366 ft | 0 kts | 339° |
| 2026-05-04 18:40 | 50.03534 | 8.58086 | 370 ft | 11 kts | 335° |
| 2026-05-04 18:40 | 50.03550 | 8.57942 | 366 ft | 20 kts | 251° |
| 2026-05-04 18:40 | 50.03491 | 8.57678 | 367 ft | 31 kts | 250° |
| 2026-05-04 18:40 | 50.03415 | 8.57358 | 363 ft | 32 kts | 247° |
| 2026-05-04 18:41 | 50.03329 | 8.57036 | 364 ft | 31 kts | 249° |
| 2026-05-04 18:41 | 50.03256 | 8.56715 | 362 ft | 33 kts | 251° |
| 2026-05-04 18:41 | 50.03179 | 8.56380 | 360 ft | 33 kts | 250° |
| 2026-05-04 18:41 | 50.03099 | 8.56047 | 358 ft | 34 kts | 249° |
| 2026-05-04 18:42 | 50.03016 | 8.55702 | 358 ft | 34 kts | 249° |
| 2026-05-04 18:42 | 50.02935 | 8.55365 | 358 ft | 34 kts | 249° |
| 2026-05-04 18:42 | 50.02853 | 8.55025 | 356 ft | 34 kts | 249° |
| 2026-05-04 18:42 | 50.02769 | 8.54679 | 355 ft | 34 kts | 250° |
| 2026-05-04 18:43 | 50.02689 | 8.54335 | 346 ft | 34 kts | 252° |
| 2026-05-04 18:43 | 50.02615 | 8.53974 | 344 ft | 35 kts | 251° |
| 2026-05-04 18:43 | 50.02527 | 8.53626 | 352 ft | 34 kts | 246° |
| 2026-05-04 18:43 | 50.02444 | 8.53285 | 348 ft | 34 kts | 252° |
| 2026-05-04 18:44 | 50.02403 | 8.53060 | 341 ft | 14 kts | 266° |
| 2026-05-04 18:44 | 50.02419 | 8.52966 | 335 ft | 14 kts | 297° |
| 2026-05-04 18:44 | 50.02518 | 8.52831 | 348 ft | 17 kts | 346° |
| 2026-05-04 18:44 | 50.02679 | 8.52825 | 342 ft | 26 kts | 360° |
| 2026-05-04 18:45 | 50.02859 | 8.52827 | 347 ft | 23 kts | 1° |
| 2026-05-04 18:45 | 50.02938 | 8.52792 | 350 ft | 6 kts | 310° |
| 2026-05-04 18:45 | 50.02939 | 8.52770 | 348 ft | 0 kts | 271° |
| 2026-05-04 18:48 | 50.02940 | 8.52730 | 346 ft | 12 kts | 271° |
| 2026-05-04 18:48 | 50.02918 | 8.52597 | 353 ft | 9 kts | 209° |
| 2026-05-04 18:48 | 50.02895 | 8.52596 | 351 ft | 0 kts | 176° |
| 2026-05-04 18:49 | 50.02819 | 8.52600 | 348 ft | 37 kts | 179° |
| 2026-05-04 18:49 | 50.02338 | 8.52598 | 341 ft | 100 kts | 179° |
| 2026-05-04 18:49 | 50.01445 | 8.52608 | 335 ft | 154 kts | 179° |
| 2026-05-04 18:50 | 50.00228 | 8.52630 | 479 ft | 187 kts | 179° |
| 2026-05-04 18:50 | 49.98905 | 8.52769 | 1346 ft | 196 kts | 175° |
| 2026-05-04 18:50 | 49.97513 | 8.53042 | 2227 ft | 214 kts | 172° |
| 2026-05-04 18:50 | 49.96132 | 8.54080 | 3110 ft | 227 kts | 134° |
| 2026-05-04 18:51 | 49.95242 | 8.56083 | 3879 ft | 226 kts | 119° |
| 2026-05-04 18:51 | 49.94518 | 8.58251 | 4545 ft | 229 kts | 117° |
| 2026-05-04 18:51 | 49.94031 | 8.60643 | 5349 ft | 239 kts | 99° |
| 2026-05-04 18:51 | 49.93887 | 8.63316 | 6165 ft | 260 kts | 95° |
| 2026-05-04 18:52 | 49.93797 | 8.66210 | 7094 ft | 272 kts | 96° |
| 2026-05-04 18:52 | 49.93394 | 8.69061 | 8047 ft | 275 kts | 118° |
| 2026-05-04 18:52 | 49.92190 | 8.71344 | 9089 ft | 274 kts | 144° |
| 2026-05-04 18:52 | 49.90649 | 8.73099 | 10036 ft | 280 kts | 148° |
| 2026-05-04 18:53 | 49.89017 | 8.74937 | 10655 ft | 299 kts | 143° |
| 2026-05-04 18:53 | 49.87618 | 8.77532 | 10935 ft | 331 kts | 125° |
| 2026-05-04 18:53 | 49.86415 | 8.80775 | 10968 ft | 366 kts | 121° |
| 2026-05-04 18:53 | 49.85151 | 8.84387 | 10967 ft | 392 kts | 121° |
| 2026-05-04 18:54 | 49.83861 | 8.88037 | 10976 ft | 379 kts | 121° |
| 2026-05-04 18:54 | 49.82614 | 8.91525 | 11217 ft | 370 kts | 122° |
| 2026-05-04 18:54 | 49.81340 | 8.95054 | 11541 ft | 376 kts | 122° |
| 2026-05-04 18:54 | 49.80050 | 8.98606 | 12272 ft | 378 kts | 122° |
| 2026-05-04 18:55 | 49.78766 | 9.02137 | 12994 ft | 381 kts | 122° |
| 2026-05-04 18:55 | 49.76247 | 9.09487 | 14287 ft | 392 kts | 113° |
| 2026-05-04 18:55 | 49.75469 | 9.13511 | 14901 ft | 397 kts | 106° |
| 2026-05-04 18:56 | 49.74672 | 9.17625 | 15491 ft | 399 kts | 115° |
| 2026-05-04 18:56 | 49.73292 | 9.21344 | 16117 ft | 398 kts | 127° |
| 2026-05-04 18:56 | 49.71620 | 9.24709 | 16721 ft | 400 kts | 132° |
| 2026-05-04 18:56 | 49.69785 | 9.27970 | 17324 ft | 403 kts | 134° |
| 2026-05-04 18:57 | 49.67880 | 9.31189 | 17932 ft | 407 kts | 135° |
| 2026-05-04 18:57 | 49.65942 | 9.34437 | 18495 ft | 410 kts | 135° |
| 2026-05-04 18:57 | 49.64032 | 9.37677 | 19008 ft | 414 kts | 134° |
| 2026-05-04 18:57 | 49.62307 | 9.41277 | 19550 ft | 420 kts | 123° |
| 2026-05-04 18:58 | 49.61018 | 9.45375 | 20104 ft | 426 kts | 115° |
| 2026-05-04 18:58 | 49.59950 | 9.49640 | 20657 ft | 431 kts | 112° |
| 2026-05-04 18:58 | 49.58988 | 9.54001 | 21188 ft | 435 kts | 110° |
| 2026-05-04 18:58 | 49.58051 | 9.58511 | 21760 ft | 439 kts | 110° |
| 2026-05-04 18:59 | 49.57133 | 9.62990 | 22286 ft | 443 kts | 110° |
| 2026-05-04 18:59 | 49.56196 | 9.67510 | 22828 ft | 447 kts | 110° |
| 2026-05-04 18:59 | 49.55230 | 9.72096 | 23356 ft | 450 kts | 111° |
| 2026-05-04 18:59 | 49.54249 | 9.76675 | 23853 ft | 454 kts | 111° |
| 2026-05-04 19:00 | 49.53114 | 9.81229 | 24280 ft | 455 kts | 118° |
| 2026-05-04 19:00 | 49.51530 | 9.85455 | 24743 ft | 454 kts | 128° |
| 2026-05-04 19:00 | 49.49660 | 9.89406 | 25198 ft | 456 kts | 130° |
| 2026-05-04 19:00 | 49.47714 | 9.93219 | 25641 ft | 459 kts | 132° |
| 2026-05-04 19:01 | 49.45684 | 9.97044 | 26106 ft | 461 kts | 133° |
| 2026-05-04 19:01 | 49.43651 | 10.00822 | 26568 ft | 464 kts | 133° |
| 2026-05-04 19:01 | 49.41569 | 10.04686 | 27013 ft | 467 kts | 133° |
| 2026-05-04 19:01 | 49.39516 | 10.08509 | 27460 ft | 470 kts | 133° |
| 2026-05-04 19:02 | 49.37427 | 10.12413 | 27909 ft | 473 kts | 133° |
| 2026-05-04 19:02 | 49.35331 | 10.16347 | 28345 ft | 476 kts | 133° |
| 2026-05-04 19:02 | 49.33239 | 10.20274 | 28780 ft | 479 kts | 133° |
| 2026-05-04 19:02 | 49.31106 | 10.24275 | 28950 ft | 482 kts | 133° |
| 2026-05-04 19:03 | 49.26868 | 10.32214 | 28969 ft | 482 kts | 133° |
| 2026-05-04 19:03 | 49.22475 | 10.39917 | 28978 ft | 480 kts | 138° |
| 2026-05-04 19:04 | 49.17737 | 10.47113 | 28974 ft | 480 kts | 139° |
| 2026-05-04 19:04 | 49.12953 | 10.54197 | 29083 ft | 481 kts | 139° |
| 2026-05-04 19:05 | 49.10535 | 10.57774 | 29469 ft | 483 kts | 139° |
| 2026-05-04 19:05 | 49.08110 | 10.61352 | 29911 ft | 485 kts | 139° |
| 2026-05-04 19:05 | 49.05696 | 10.64911 | 30277 ft | 487 kts | 139° |
| 2026-05-04 19:05 | 49.03264 | 10.68498 | 30602 ft | 489 kts | 139° |
| 2026-05-04 19:06 | 49.01630 | 10.70905 | 30821 ft | 490 kts | 139° |
| 2026-05-04 19:06 | 48.99159 | 10.74536 | 31186 ft | 490 kts | 139° |
| 2026-05-04 19:06 | 48.95921 | 10.79281 | 31835 ft | 487 kts | 139° |
| 2026-05-04 19:06 | 48.94298 | 10.81658 | 32141 ft | 485 kts | 139° |
| 2026-05-04 19:07 | 48.91841 | 10.85255 | 32584 ft | 484 kts | 139° |
| 2026-05-04 19:07 | 48.89442 | 10.88777 | 32995 ft | 482 kts | 139° |
| 2026-05-04 19:07 | 48.87029 | 10.92309 | 33422 ft | 481 kts | 139° |
| 2026-05-04 19:07 | 48.84612 | 10.95837 | 33834 ft | 479 kts | 139° |
| 2026-05-04 19:08 | 48.82233 | 10.99305 | 34185 ft | 478 kts | 139° |
| 2026-05-04 19:08 | 48.79825 | 11.02811 | 34457 ft | 478 kts | 139° |
| 2026-05-04 19:08 | 48.77427 | 11.06297 | 34709 ft | 479 kts | 139° |
| 2026-05-04 19:08 | 48.75021 | 11.09790 | 34903 ft | 480 kts | 139° |
| 2026-05-04 19:09 | 48.70177 | 11.16786 | 34937 ft | 483 kts | 139° |
| 2026-05-04 19:09 | 48.65606 | 11.24304 | 34937 ft | 487 kts | 128° |
| 2026-05-04 19:10 | 48.62567 | 11.33481 | 34938 ft | 493 kts | 112° |
| 2026-05-04 19:10 | 48.61320 | 11.39021 | 34938 ft | 494 kts | 110° |
| 2026-05-04 19:11 | 48.59261 | 11.48923 | 34937 ft | 495 kts | 109° |
| 2026-05-04 19:11 | 48.57233 | 11.58883 | 34933 ft | 496 kts | 107° |
| 2026-05-04 19:12 | 48.54915 | 11.74135 | 34933 ft | 498 kts | 104° |
| 2026-05-04 19:13 | 48.53440 | 11.84309 | 34936 ft | 498 kts | 104° |
| 2026-05-04 19:13 | 48.51945 | 11.94546 | 34933 ft | 498 kts | 105° |
| 2026-05-04 19:14 | 48.50447 | 12.04674 | 34936 ft | 498 kts | 105° |
| 2026-05-04 19:14 | 48.48921 | 12.14925 | 34926 ft | 498 kts | 105° |
| 2026-05-04 19:15 | 48.47388 | 12.25090 | 34918 ft | 498 kts | 105° |
| 2026-05-04 19:15 | 48.45877 | 12.35308 | 34907 ft | 499 kts | 102° |
| 2026-05-04 19:16 | 48.45110 | 12.45723 | 34908 ft | 501 kts | 96° |
| 2026-05-04 19:16 | 48.44686 | 12.56164 | 34904 ft | 502 kts | 95° |
| 2026-05-04 19:17 | 48.44287 | 12.66723 | 34903 ft | 502 kts | 95° |
| 2026-05-04 19:17 | 48.43848 | 12.77219 | 34898 ft | 502 kts | 96° |
| 2026-05-04 19:18 | 48.43381 | 12.87640 | 34895 ft | 502 kts | 96° |
| 2026-05-04 19:18 | 48.42894 | 12.98188 | 34891 ft | 502 kts | 96° |
| 2026-05-04 19:19 | 48.42402 | 13.08681 | 34892 ft | 502 kts | 96° |
| 2026-05-04 19:19 | 48.41901 | 13.19168 | 34892 ft | 502 kts | 96° |
| 2026-05-04 19:20 | 48.41187 | 13.29544 | 34887 ft | 500 kts | 104° |
| 2026-05-04 19:20 | 48.39052 | 13.39466 | 34890 ft | 497 kts | 114° |
| 2026-05-04 19:21 | 48.36372 | 13.49047 | 34888 ft | 497 kts | 116° |
| 2026-05-04 19:21 | 48.33613 | 13.58546 | 34890 ft | 497 kts | 115° |
| 2026-05-04 19:22 | 48.30868 | 13.68091 | 34889 ft | 496 kts | 115° |
| 2026-05-04 19:22 | 48.28140 | 13.77650 | 34889 ft | 496 kts | 115° |
| 2026-05-04 19:23 | 48.25422 | 13.87170 | 34883 ft | 496 kts | 115° |
| 2026-05-04 19:23 | 48.22713 | 13.96614 | 34892 ft | 495 kts | 115° |
| 2026-05-04 19:24 | 48.19980 | 14.06098 | 34894 ft | 495 kts | 115° |
| 2026-05-04 19:24 | 48.17240 | 14.15567 | 34889 ft | 495 kts | 115° |
| 2026-05-04 19:25 | 48.14484 | 14.25058 | 34871 ft | 495 kts | 115° |
| 2026-05-04 19:25 | 48.11732 | 14.34494 | 34886 ft | 495 kts | 115° |
| 2026-05-04 19:26 | 48.08971 | 14.43926 | 34886 ft | 495 kts | 115° |
| 2026-05-04 19:26 | 48.06210 | 14.53323 | 34883 ft | 495 kts | 115° |
| 2026-05-04 19:27 | 48.03413 | 14.62806 | 35078 ft | 496 kts | 115° |
| 2026-05-04 19:27 | 48.02028 | 14.67486 | 35382 ft | 495 kts | 115° |
| 2026-05-04 19:27 | 48.00632 | 14.72195 | 35643 ft | 495 kts | 115° |
| 2026-05-04 19:27 | 47.99230 | 14.76918 | 35903 ft | 496 kts | 115° |
| 2026-05-04 19:28 | 47.97841 | 14.81586 | 36159 ft | 495 kts | 115° |
| 2026-05-04 19:28 | 47.96429 | 14.86321 | 36470 ft | 494 kts | 115° |
| 2026-05-04 19:28 | 47.95041 | 14.90969 | 36771 ft | 492 kts | 115° |
| 2026-05-04 19:28 | 47.93640 | 14.95651 | 36921 ft | 495 kts | 115° |
| 2026-05-04 19:29 | 47.92229 | 15.00357 | 36927 ft | 500 kts | 115° |
| 2026-05-04 19:29 | 47.89361 | 15.09892 | 36926 ft | 507 kts | 115° |
| 2026-05-04 19:30 | 47.86460 | 15.19504 | 36931 ft | 511 kts | 115° |
| 2026-05-04 19:30 | 47.83535 | 15.29160 | 36941 ft | 512 kts | 115° |
| 2026-05-04 19:31 | 47.80590 | 15.38842 | 36951 ft | 513 kts | 115° |
| 2026-05-04 19:31 | 47.77656 | 15.48449 | 36958 ft | 513 kts | 115° |
| 2026-05-04 19:32 | 47.74682 | 15.58149 | 36960 ft | 513 kts | 115° |
| 2026-05-04 19:32 | 47.71723 | 15.67767 | 36966 ft | 513 kts | 115° |
| 2026-05-04 19:33 | 47.68745 | 15.77406 | 36967 ft | 512 kts | 115° |
| 2026-05-04 19:33 | 47.65780 | 15.86967 | 36969 ft | 512 kts | 115° |
| 2026-05-04 19:34 | 47.63155 | 15.96817 | 36966 ft | 512 kts | 110° |
| 2026-05-04 19:34 | 47.60793 | 16.06723 | 36965 ft | 512 kts | 109° |
| 2026-05-04 19:35 | 47.58449 | 16.16687 | 36965 ft | 513 kts | 110° |
| 2026-05-04 19:35 | 47.56072 | 16.26661 | 36964 ft | 513 kts | 110° |